createdAt,value
2018-07-13T00:01:03.488Z,156.97
2018-07-13T00:03:30.665Z,170.20
2018-07-13T00:05:57.853Z,166.50
2018-07-13T00:08:25.086Z,156.70
2018-07-13T00:10:52.252Z,155.80
2018-07-13T00:13:19.448Z,153.83
2018-07-13T00:15:57.666Z,170.70
2018-07-13T00:18:24.842Z,168.50
2018-07-13T00:20:52.043Z,163.40
2018-07-13T00:23:19.204Z,162.20
2018-07-13T00:25:46.382Z,159.37
2018-07-13T00:28:13.554Z,167.23
2018-07-13T00:30:40.714Z,159.90
2018-07-13T00:33:07.876Z,166.80
2018-07-13T00:35:35.056Z,157.57
2018-07-13T00:38:02.240Z,156.57
2018-07-13T00:40:29.413Z,158.30
2018-07-13T00:42:56.594Z,156.27
2018-07-13T00:45:23.786Z,154.47
2018-07-13T00:47:50.947Z,159.33
2018-07-13T00:50:18.229Z,159.50
2018-07-13T00:52:45.404Z,151.60
2018-07-13T00:55:12.585Z,149.00
2018-07-13T00:57:39.984Z,157.40
2018-07-13T01:00:07.300Z,152.73
2018-07-13T01:02:34.465Z,144.43
2018-07-13T01:05:01.639Z,149.10
2018-07-13T01:07:28.816Z,148.60
2018-07-13T01:09:56.002Z,148.97
2018-07-13T01:12:23.156Z,150.00
2018-07-13T01:14:50.326Z,154.07
2018-07-13T01:17:20.844Z,152.20
2018-07-13T01:19:48.021Z,161.40
2018-07-13T01:22:15.197Z,152.17
2018-07-13T01:24:42.379Z,151.30
2018-07-13T01:27:09.542Z,152.50
2018-07-13T01:29:36.701Z,149.93
2018-07-13T01:32:03.901Z,156.43
2018-07-13T01:34:31.061Z,152.43
2018-07-13T01:36:58.209Z,147.70
2018-07-13T01:39:25.368Z,156.33
2018-07-13T01:41:52.516Z,150.70
2018-07-13T01:44:19.663Z,156.70
2018-07-13T01:46:46.841Z,150.90
2018-07-13T01:49:13.986Z,146.80
2018-07-13T01:51:41.144Z,149.03
2018-07-13T01:54:08.307Z,148.40
2018-07-13T01:56:35.472Z,149.37
2018-07-13T01:59:02.638Z,154.50
2018-07-13T02:01:29.792Z,151.20
2018-07-13T02:03:56.967Z,141.03
2018-07-13T02:06:24.145Z,143.47
2018-07-13T02:08:51.301Z,143.70
2018-07-13T02:11:18.482Z,155.50
2018-07-13T02:13:45.664Z,150.03
2018-07-13T02:16:12.871Z,151.70
2018-07-13T02:18:40.027Z,158.97
2018-07-13T02:21:07.204Z,143.73
2018-07-13T02:23:34.363Z,144.87
2018-07-13T02:26:01.557Z,148.40
2018-07-13T02:28:28.714Z,146.10
2018-07-13T02:30:55.951Z,142.93
2018-07-13T02:33:23.062Z,147.73
2018-07-13T02:35:50.214Z,151.67
2018-07-13T02:38:17.371Z,146.43
2018-07-13T02:40:44.527Z,148.90
2018-07-13T02:43:11.685Z,141.43
2018-07-13T02:45:38.849Z,142.30
2018-07-13T02:48:06.029Z,141.03
2018-07-13T02:50:33.235Z,146.63
2018-07-13T02:53:00.445Z,147.00
2018-07-13T02:55:27.653Z,143.50
2018-07-13T02:57:54.878Z,142.97
2018-07-13T03:00:22.097Z,144.10
2018-07-13T03:02:49.333Z,151.93
2018-07-13T03:05:16.533Z,144.43
2018-07-13T03:07:43.786Z,148.13
2018-07-13T03:10:11.005Z,145.60
2018-07-13T03:12:38.349Z,141.20
2018-07-13T03:15:05.778Z,145.20
2018-07-13T03:17:36.439Z,153.47
2018-07-13T03:20:03.660Z,145.60
2018-07-13T03:22:30.877Z,146.00
2018-07-13T03:24:58.104Z,150.20
2018-07-13T03:27:25.313Z,148.03
2018-07-13T03:29:52.548Z,150.43
2018-07-13T03:32:19.752Z,149.47
2018-07-13T03:34:46.972Z,146.17
2018-07-13T03:37:14.186Z,150.07
2018-07-13T03:39:41.420Z,149.57
2018-07-13T03:42:08.641Z,153.33
2018-07-13T03:44:35.840Z,151.03
2018-07-13T03:47:03.065Z,146.97
2018-07-13T03:49:30.281Z,151.93
2018-07-13T03:51:57.722Z,151.20
2018-07-13T03:54:25.093Z,147.83
2018-07-13T03:56:52.394Z,149.93
2018-07-13T03:59:19.613Z,146.33
2018-07-13T04:01:46.848Z,148.17
2018-07-13T04:04:14.148Z,147.30
2018-07-13T04:06:41.349Z,152.43
2018-07-13T04:09:09.596Z,149.07
2018-07-13T04:11:36.861Z,158.40
2018-07-13T04:14:04.640Z,154.03
2018-07-13T04:16:31.854Z,149.80
2018-07-13T04:18:59.077Z,143.87
2018-07-13T04:21:26.329Z,156.70
2018-07-13T04:23:53.592Z,158.57
2018-07-13T04:26:20.854Z,160.03
2018-07-13T04:28:48.169Z,161.03
2018-07-13T04:31:15.370Z,155.03
2018-07-13T04:33:42.585Z,155.40
2018-07-13T04:36:09.833Z,159.83
2018-07-13T04:38:37.060Z,165.83
2018-07-13T04:41:04.316Z,144.97
2018-07-13T04:43:31.525Z,159.70
2018-07-13T04:45:58.800Z,148.53
2018-07-13T04:48:26.258Z,158.83
2018-07-13T04:50:53.509Z,152.07
2018-07-13T04:53:20.776Z,149.50
2018-07-13T04:55:48.057Z,156.47
2018-07-13T04:58:15.328Z,151.70
2018-07-13T05:00:42.661Z,149.37
2018-07-13T05:03:09.877Z,156.70
2018-07-13T05:05:37.161Z,150.97
2018-07-13T05:08:04.416Z,150.70
2018-07-13T05:10:31.650Z,166.87
2018-07-13T05:12:58.888Z,162.77
2018-07-13T05:15:26.137Z,166.90
2018-07-13T05:17:53.362Z,154.20
2018-07-13T05:20:20.632Z,160.20
2018-07-13T05:22:47.901Z,147.60
2018-07-13T05:25:15.172Z,155.33
2018-07-13T05:27:42.437Z,164.63
2018-07-13T05:30:09.709Z,163.97
2018-07-13T05:32:37.025Z,166.07
2018-07-13T05:35:04.324Z,165.97
2018-07-13T05:37:31.958Z,176.77
2018-07-13T05:40:00.634Z,164.20
2018-07-13T05:42:27.909Z,171.47
2018-07-13T05:44:55.194Z,173.47
2018-07-13T05:47:22.465Z,164.10
2018-07-13T05:49:49.860Z,171.30
2018-07-13T05:52:17.144Z,163.27
2018-07-13T05:54:44.417Z,167.43
2018-07-13T05:57:11.686Z,157.87
2018-07-13T05:59:38.953Z,166.07
2018-07-13T06:02:06.233Z,161.73
2018-07-13T06:04:33.657Z,171.23
2018-07-13T06:07:00.924Z,180.03
2018-07-13T06:09:28.189Z,164.63
2018-07-13T06:11:55.470Z,172.23
2018-07-13T06:14:22.697Z,166.80
2018-07-13T06:16:49.911Z,171.47
2018-07-13T06:19:17.138Z,162.40
2018-07-13T06:21:44.378Z,169.10
2018-07-13T06:24:11.623Z,165.70
2018-07-13T06:26:38.816Z,167.77
2018-07-13T06:29:06.060Z,174.03
2018-07-13T06:31:33.349Z,169.57
2018-07-13T06:34:00.567Z,175.47
2018-07-13T06:36:27.917Z,196.77
2018-07-13T06:38:55.166Z,184.33
2018-07-13T06:41:22.456Z,177.37
2018-07-13T06:43:49.814Z,182.10
2018-07-13T06:46:17.048Z,180.27
2018-07-13T06:48:44.345Z,182.40
2018-07-13T06:51:11.616Z,182.70
2018-07-13T06:53:38.884Z,190.13
2018-07-13T06:56:06.105Z,196.03
2018-07-13T06:58:45.035Z,206.03
2018-07-13T07:01:12.253Z,240.50
2018-07-13T07:04:52.136Z,261.67
2018-07-13T07:07:21.879Z,307.77
2018-07-13T07:09:51.657Z,378.90
2018-07-13T07:13:02.806Z,375.13
2018-07-13T07:15:30.045Z,421.87
2018-07-13T07:17:57.301Z,486.67
2018-07-13T07:20:24.555Z,495.13
2018-07-13T07:22:51.847Z,538.67
2018-07-13T07:25:19.114Z,531.17
2018-07-13T07:27:46.382Z,539.70
2018-07-13T07:30:13.932Z,569.70
2018-07-13T07:32:41.298Z,591.30
2018-07-13T07:35:09.182Z,631.07
2018-07-13T07:37:36.445Z,620.23
2018-07-13T07:40:03.682Z,629.13
2018-07-13T07:42:31.200Z,667.93
2018-07-13T07:44:58.469Z,672.03
2018-07-13T07:47:25.812Z,640.37
2018-07-13T07:49:53.065Z,645.83
2018-07-13T07:52:20.434Z,684.23
2018-07-13T07:54:47.695Z,653.00
2018-07-13T07:57:14.934Z,655.83
2018-07-13T07:59:42.345Z,648.23
2018-07-13T08:02:09.610Z,668.80
2018-07-13T08:04:36.872Z,667.87
2018-07-13T08:07:04.466Z,692.70
2018-07-13T08:09:31.399Z,684.57
2018-07-13T08:11:58.609Z,743.40
2018-07-13T08:14:25.915Z,724.10
2018-07-13T08:16:53.054Z,710.80
2018-07-13T08:19:20.281Z,722.13
2018-07-13T08:21:47.555Z,727.13
2018-07-13T08:24:17.765Z,758.33
2018-07-13T08:26:45.101Z,755.07
2018-07-13T08:29:13.834Z,726.13
2018-07-13T08:31:41.041Z,732.83
2018-07-13T08:34:08.454Z,731.90
2018-07-13T08:36:35.866Z,742.47
2018-07-13T08:39:03.938Z,753.77
2018-07-13T08:41:31.200Z,782.03
2018-07-13T08:43:58.481Z,746.77
2018-07-13T08:46:25.701Z,781.37
2018-07-13T08:48:52.952Z,756.20
2018-07-13T08:51:20.271Z,769.43
2018-07-13T08:53:47.488Z,766.60
2018-07-13T08:56:14.799Z,768.07
2018-07-13T08:58:42.017Z,761.10
2018-07-13T09:01:09.281Z,751.67
2018-07-13T09:03:36.493Z,770.63
2018-07-13T09:06:03.765Z,760.10
2018-07-13T09:08:31.025Z,785.67
2018-07-13T09:10:58.276Z,733.93
2018-07-13T09:13:25.503Z,738.03
2018-07-13T09:15:53.301Z,682.67
2018-07-13T09:18:20.649Z,653.13
2018-07-13T09:20:47.808Z,659.13
2018-07-13T09:23:15.026Z,622.20
2018-07-13T09:25:42.292Z,602.17
2018-07-13T09:28:09.543Z,573.73
2018-07-13T09:30:36.817Z,588.00
2018-07-13T09:33:04.066Z,517.73
2018-07-13T09:35:31.304Z,492.57
2018-07-13T09:37:58.609Z,486.43
2018-07-13T09:40:25.820Z,477.30
2018-07-13T09:42:53.305Z,485.37
2018-07-13T09:45:20.568Z,468.70
2018-07-13T09:47:47.796Z,465.87
2018-07-13T09:50:15.051Z,477.57
2018-07-13T09:52:42.320Z,460.20
2018-07-13T09:55:09.590Z,473.33
2018-07-13T09:57:36.816Z,486.40
2018-07-13T10:00:04.091Z,535.50
2018-07-13T10:02:31.352Z,595.10
2018-07-13T10:04:58.634Z,651.30
2018-07-13T10:07:26.282Z,650.20
2018-07-13T10:09:53.497Z,652.17
2018-07-13T10:12:20.749Z,688.20
2018-07-13T10:14:48.017Z,701.53
2018-07-13T10:17:15.273Z,735.17
2018-07-13T10:19:42.589Z,735.10
2018-07-13T10:22:12.508Z,769.13
2018-07-13T10:24:40.993Z,812.87
2018-07-13T10:27:08.266Z,800.70
2018-07-13T10:29:40.037Z,751.00
2018-07-13T10:32:07.308Z,774.67
2018-07-13T10:34:34.576Z,713.77
2018-07-13T10:37:03.473Z,692.90
2018-07-13T10:39:31.130Z,681.40
2018-07-13T10:41:58.397Z,702.77
2018-07-13T10:44:25.630Z,710.57
2018-07-13T10:46:53.007Z,734.43
2018-07-13T10:49:20.255Z,695.10
2018-07-13T10:51:47.872Z,687.27
2018-07-13T10:54:15.104Z,699.23
2018-07-13T10:56:42.328Z,673.03
2018-07-13T10:59:09.549Z,637.77
2018-07-13T11:01:36.794Z,600.07
2018-07-13T11:04:04.035Z,622.13
2018-07-13T11:06:31.268Z,612.77
2018-07-13T11:08:58.489Z,579.03
2018-07-13T11:11:25.696Z,561.30
2018-07-13T11:13:53.025Z,579.17
2018-07-13T11:16:20.128Z,537.17
2018-07-13T11:18:47.338Z,565.37
2018-07-13T11:21:14.541Z,555.53
2018-07-13T11:23:41.760Z,563.07
2018-07-13T11:26:08.978Z,577.00
2018-07-13T11:28:36.189Z,580.43
2018-07-13T11:31:03.417Z,576.33
2018-07-13T11:33:30.651Z,570.37
2018-07-13T11:35:57.868Z,658.67
2018-07-13T11:38:25.096Z,652.33
2018-07-13T11:40:52.334Z,707.07
2018-07-13T11:43:19.542Z,712.73
2018-07-13T11:45:46.754Z,757.60
2018-07-13T11:48:13.985Z,766.70
2018-07-13T11:50:41.212Z,811.97
2018-07-13T11:53:08.421Z,797.43
2018-07-13T11:55:35.645Z,805.97
2018-07-13T11:58:02.873Z,837.63
2018-07-13T12:00:30.129Z,823.23
2018-07-13T12:02:57.322Z,826.40
2018-07-13T12:05:24.534Z,836.77
2018-07-13T12:07:51.797Z,808.57
2018-07-13T12:10:18.987Z,813.73
2018-07-13T12:12:46.237Z,814.03
2018-07-13T12:15:13.468Z,807.77
2018-07-13T12:17:40.740Z,838.43
2018-07-13T12:20:07.920Z,802.27
2018-07-13T12:22:35.133Z,795.30
2018-07-13T12:25:02.388Z,832.87
2018-07-13T12:27:29.617Z,808.03
2018-07-13T12:29:56.816Z,795.40
2018-07-13T12:32:24.053Z,830.23
2018-07-13T12:34:51.268Z,802.83
2018-07-13T12:37:18.565Z,791.30
2018-07-13T12:39:46.040Z,799.07
2018-07-13T12:42:13.217Z,797.20
2018-07-13T12:44:40.441Z,767.97
2018-07-13T12:47:07.660Z,766.47
2018-07-13T12:49:34.874Z,748.93
2018-07-13T12:52:02.124Z,751.47
2018-07-13T12:54:29.403Z,705.43
2018-07-13T12:56:56.604Z,677.50
2018-07-13T12:59:23.832Z,655.03
2018-07-13T13:01:51.044Z,654.43
2018-07-13T13:04:18.261Z,635.87
2018-07-13T13:06:45.497Z,598.90
2018-07-13T13:09:12.714Z,606.63
2018-07-13T13:11:39.920Z,556.10
2018-07-13T13:14:07.137Z,569.80
2018-07-13T13:16:34.349Z,520.83
2018-07-13T13:19:01.583Z,524.33
2018-07-13T13:21:28.803Z,541.27
2018-07-13T13:23:56.050Z,544.20
2018-07-13T13:26:23.281Z,497.17
2018-07-13T13:28:50.528Z,519.83
2018-07-13T13:31:17.749Z,507.70
2018-07-13T13:33:44.988Z,571.87
2018-07-13T13:36:12.198Z,607.90
2018-07-13T13:38:39.415Z,645.97
2018-07-13T13:41:06.641Z,686.07
2018-07-13T13:43:33.850Z,703.60
2018-07-13T13:46:01.099Z,691.50
2018-07-13T13:48:28.304Z,734.13
2018-07-13T13:50:55.510Z,728.33
2018-07-13T13:53:22.727Z,721.40
2018-07-13T13:55:49.971Z,748.33
2018-07-13T13:58:17.208Z,730.57
2018-07-13T14:00:44.462Z,749.37
2018-07-13T14:03:11.688Z,768.97
2018-07-13T14:05:38.917Z,764.73
2018-07-13T14:08:06.139Z,752.47
2018-07-13T14:10:33.357Z,755.67
2018-07-13T14:13:00.570Z,780.13
2018-07-13T14:15:27.781Z,777.80
2018-07-13T14:17:54.988Z,776.70
2018-07-13T14:20:22.253Z,796.07
2018-07-13T14:22:49.441Z,772.17
2018-07-13T14:25:16.674Z,747.87
2018-07-13T14:27:43.876Z,728.53
2018-07-13T14:30:11.117Z,692.33
2018-07-13T14:32:38.356Z,659.37
2018-07-13T14:35:05.776Z,639.67
2018-07-13T14:37:32.993Z,670.73
2018-07-13T14:40:00.231Z,699.20
2018-07-13T14:42:27.464Z,689.20
2018-07-13T14:44:54.698Z,695.60
2018-07-13T14:47:21.937Z,751.40
2018-07-13T14:49:49.157Z,747.47
2018-07-13T14:52:16.365Z,773.30
2018-07-13T14:54:43.586Z,755.17
2018-07-13T14:57:10.809Z,783.23
2018-07-13T14:59:38.058Z,751.00
2018-07-13T15:02:05.380Z,757.67
2018-07-13T15:04:32.584Z,733.17
2018-07-13T15:06:59.793Z,718.67
2018-07-13T15:09:27.021Z,709.77
2018-07-13T15:11:54.252Z,662.07
2018-07-13T15:14:21.465Z,699.57
2018-07-13T15:16:48.721Z,680.93
2018-07-13T15:19:15.931Z,695.80
2018-07-13T15:21:43.313Z,724.43
2018-07-13T15:24:10.486Z,737.47
2018-07-13T15:26:37.702Z,719.90
2018-07-13T15:29:04.997Z,716.73
2018-07-13T15:31:32.197Z,713.07
2018-07-13T15:33:59.414Z,670.23
2018-07-13T15:36:26.657Z,673.33
2018-07-13T15:38:53.872Z,637.07
2018-07-13T15:41:21.088Z,623.60
2018-07-13T15:43:48.591Z,579.90
2018-07-13T15:46:15.793Z,571.93
2018-07-13T15:48:43.013Z,583.03
2018-07-13T15:51:10.248Z,620.13
2018-07-13T15:53:37.492Z,635.27
2018-07-13T15:56:04.729Z,638.50
2018-07-13T15:58:32.081Z,673.30
2018-07-13T16:00:59.250Z,674.23
2018-07-13T16:03:26.488Z,698.23
2018-07-13T16:05:53.873Z,698.33
2018-07-13T16:08:21.153Z,669.43
2018-07-13T16:10:48.508Z,709.93
2018-07-13T16:13:15.621Z,714.27
2018-07-13T16:15:42.849Z,706.10
2018-07-13T16:18:10.103Z,711.87
2018-07-13T16:20:37.332Z,713.33
2018-07-13T16:23:04.727Z,727.73
2018-07-13T16:25:31.927Z,700.77
2018-07-13T16:27:59.199Z,693.77
2018-07-13T16:30:26.404Z,696.00
2018-07-13T16:32:53.626Z,719.80
2018-07-13T16:35:20.880Z,726.33
2018-07-13T16:37:48.110Z,727.40
2018-07-13T16:40:15.310Z,682.97
2018-07-13T16:42:42.532Z,689.60
2018-07-13T16:45:09.793Z,664.47
2018-07-13T16:47:36.969Z,671.10
2018-07-13T16:50:04.224Z,684.97
2018-07-13T16:52:31.472Z,682.07
2018-07-13T16:54:58.712Z,695.63
2018-07-13T16:57:25.959Z,680.47
2018-07-13T16:59:53.205Z,653.50
2018-07-13T17:02:20.512Z,690.50
2018-07-13T17:04:47.905Z,693.83
2018-07-13T17:07:15.113Z,666.03
2018-07-13T17:09:42.325Z,703.50
2018-07-13T17:12:09.561Z,683.30
2018-07-13T17:14:36.761Z,653.10
2018-07-13T17:17:03.989Z,690.60
2018-07-13T17:19:31.201Z,672.00
2018-07-13T17:21:58.418Z,666.03
2018-07-13T17:24:25.641Z,658.07
2018-07-13T17:26:52.912Z,632.23
2018-07-13T17:29:20.139Z,613.90
2018-07-13T17:31:47.360Z,596.33
2018-07-13T17:34:14.572Z,598.90
2018-07-13T17:36:41.769Z,603.30
2018-07-13T17:39:08.987Z,567.77
2018-07-13T17:41:36.236Z,543.63
2018-07-13T17:44:03.518Z,562.63
2018-07-13T17:46:30.879Z,557.47
2018-07-13T17:48:58.174Z,512.70
2018-07-13T17:51:26.146Z,484.30
2018-07-13T17:53:53.361Z,479.40
2018-07-13T17:56:20.576Z,469.33
2018-07-13T17:58:47.810Z,468.30
2018-07-13T18:01:15.051Z,487.53
2018-07-13T18:03:42.364Z,465.63
2018-07-13T18:06:09.675Z,464.90
2018-07-13T18:08:38.564Z,458.47
2018-07-13T18:11:05.774Z,453.13
2018-07-13T18:13:33.026Z,431.87
2018-07-13T18:16:00.269Z,414.67
2018-07-13T18:18:27.685Z,416.57
2018-07-13T18:20:54.904Z,449.80
2018-07-13T18:23:22.161Z,406.40
2018-07-13T18:25:49.373Z,407.43
2018-07-13T18:28:16.680Z,399.27
2018-07-13T18:30:43.817Z,386.33
2018-07-13T18:33:11.037Z,376.57
2018-07-13T18:35:38.253Z,388.77
2018-07-13T18:38:05.452Z,372.33
2018-07-13T18:40:32.825Z,409.63
2018-07-13T18:43:00.058Z,380.07
2018-07-13T18:45:27.281Z,383.57
2018-07-13T18:47:54.495Z,354.90
2018-07-13T18:50:21.892Z,349.90
2018-07-13T18:52:49.209Z,350.23
2018-07-13T18:55:16.624Z,341.57
2018-07-13T18:57:43.869Z,338.67
2018-07-13T19:00:11.103Z,341.77
2018-07-13T19:02:38.300Z,349.00
2018-07-13T19:05:05.693Z,321.17
2018-07-13T19:07:32.913Z,327.73
2018-07-13T19:10:00.138Z,349.57
2018-07-13T19:12:27.357Z,317.17
2018-07-13T19:14:54.574Z,326.13
2018-07-13T19:17:21.793Z,308.20
2018-07-13T19:19:49.034Z,304.30
2018-07-13T19:22:16.246Z,325.27
2018-07-13T19:24:43.485Z,314.57
2018-07-13T19:27:10.809Z,312.13
2018-07-13T19:29:38.032Z,317.37
2018-07-13T19:32:05.246Z,299.03
2018-07-13T19:34:32.461Z,301.73
2018-07-13T19:36:59.688Z,302.00
2018-07-13T19:39:26.974Z,295.00
2018-07-13T19:41:54.199Z,297.53
2018-07-13T19:44:21.422Z,298.47
2018-07-13T19:46:48.647Z,306.80
2018-07-13T19:49:15.976Z,301.93
2018-07-13T19:51:43.322Z,285.77
2018-07-13T19:54:10.489Z,303.67
2018-07-13T19:56:37.766Z,297.37
2018-07-13T19:59:05.011Z,286.47
2018-07-13T20:01:32.239Z,276.50
2018-07-13T20:03:59.491Z,266.93
2018-07-13T20:06:26.731Z,274.40
2018-07-13T20:08:54.041Z,275.03
2018-07-13T20:11:21.311Z,264.30
2018-07-13T20:13:48.584Z,269.80
2018-07-13T20:16:16.060Z,277.27
2018-07-13T20:18:43.380Z,266.57
2018-07-13T20:21:10.617Z,256.13
2018-07-13T20:23:37.849Z,260.40
2018-07-13T20:26:05.117Z,267.37
2018-07-13T20:28:32.312Z,277.33
2018-07-13T20:30:59.585Z,256.50
2018-07-13T20:33:26.937Z,271.70
2018-07-13T20:35:54.161Z,280.97
2018-07-13T20:38:21.388Z,267.97
2018-07-13T20:40:48.617Z,263.00
2018-07-13T20:43:15.836Z,263.33
2018-07-13T20:45:43.060Z,255.07
2018-07-13T20:48:10.256Z,260.33
2018-07-13T20:50:37.460Z,262.07
2018-07-13T20:53:04.688Z,257.80
2018-07-13T20:55:31.902Z,259.57
2018-07-13T20:57:59.116Z,253.70
2018-07-13T21:00:26.318Z,274.70
2018-07-13T21:02:53.553Z,254.63
2018-07-13T21:05:20.745Z,266.70
2018-07-13T21:07:48.013Z,254.70
2018-07-13T21:10:15.593Z,268.53
2018-07-13T21:12:42.857Z,251.83
2018-07-13T21:15:10.057Z,258.23
2018-07-13T21:17:37.393Z,252.93
2018-07-13T21:20:04.684Z,254.90
2018-07-13T21:22:31.889Z,252.53
2018-07-13T21:24:59.381Z,266.77
2018-07-13T21:27:26.770Z,252.57
2018-07-13T21:29:53.994Z,245.40
2018-07-13T21:32:21.216Z,242.67
2018-07-13T21:34:48.653Z,258.33
2018-07-13T21:37:15.868Z,254.57
2018-07-13T21:39:43.080Z,258.67
2018-07-13T21:42:10.366Z,253.80
2018-07-13T21:44:37.574Z,236.00
2018-07-13T21:47:04.966Z,248.80
2018-07-13T21:49:32.186Z,235.00
2018-07-13T21:51:59.478Z,238.87
2018-07-13T21:54:26.712Z,256.83
2018-07-13T21:56:53.982Z,248.87
2018-07-13T21:59:21.256Z,235.00
2018-07-13T22:01:48.686Z,237.37
2018-07-13T22:04:15.929Z,240.03
2018-07-13T22:06:43.582Z,229.90
2018-07-13T22:09:10.890Z,229.97
2018-07-13T22:11:38.132Z,235.00
2018-07-13T22:14:05.477Z,251.27
2018-07-13T22:16:40.217Z,236.47
2018-07-13T22:19:07.430Z,250.00
2018-07-13T22:21:34.677Z,225.83
2018-07-13T22:24:01.958Z,245.07
2018-07-13T22:26:29.274Z,225.33
2018-07-13T22:28:56.456Z,236.00
2018-07-13T22:31:23.735Z,230.83
2018-07-13T22:33:50.900Z,233.17
2018-07-13T22:36:18.109Z,230.03
2018-07-13T22:38:45.322Z,231.77
2018-07-13T22:41:12.793Z,223.53
2018-07-13T22:43:40.029Z,226.60
2018-07-13T22:46:07.241Z,221.23
2018-07-13T22:48:34.445Z,227.50
2018-07-13T22:51:01.684Z,223.23
2018-07-13T22:53:29.049Z,221.90
2018-07-13T22:55:56.256Z,221.50
2018-07-13T22:58:23.517Z,221.90
2018-07-13T23:00:50.770Z,215.30
2018-07-13T23:03:18.000Z,227.10
2018-07-13T23:05:45.249Z,213.17
2018-07-13T23:08:12.449Z,217.67
2018-07-13T23:10:39.669Z,229.60
2018-07-13T23:13:06.917Z,215.57
2018-07-13T23:15:34.129Z,211.67
2018-07-13T23:18:01.396Z,213.83
2018-07-13T23:20:28.613Z,211.37
2018-07-13T23:22:55.856Z,220.80
2018-07-13T23:25:23.080Z,215.10
2018-07-13T23:27:50.289Z,212.27
2018-07-13T23:30:17.523Z,210.10
2018-07-13T23:32:44.744Z,227.10
2018-07-13T23:35:11.966Z,217.90
2018-07-13T23:37:39.181Z,219.23
2018-07-13T23:40:06.416Z,225.20
2018-07-13T23:42:33.636Z,222.63
2018-07-13T23:45:00.844Z,211.43
2018-07-13T23:47:28.045Z,225.73
2018-07-13T23:49:55.249Z,244.07
2018-07-13T23:52:22.456Z,226.30
2018-07-13T23:54:49.672Z,236.00
2018-07-13T23:57:16.892Z,215.23
2018-07-13T23:59:44.113Z,214.13
